sensor_id;sensor_type;location;lat;lon;timestamp;pressure;altitude;pressure_sealevel;temperature;humidity
74631;BME280;63138;55.082;38.804;2023-08-31T00:00:49;99900.78;;;12.82;100.00
74631;BME280;63138;55.082;38.804;2023-08-31T00:03:17;99897.47;;;12.87;100.00
74631;BME280;63138;55.082;38.804;2023-08-31T00:05:43;99893.91;;;12.86;100.00
74631;BME280;63138;55.082;38.804;2023-08-31T00:08:09;99897.66;;;12.85;100.00
74631;BME280;63138;55.082;38.804;2023-08-31T00:10:37;99905.78;;;12.78;100.00
74631;BME280;63138;55.082;38.804;2023-08-31T00:13:03;99902.81;;;12.80;100.00
74631;BME280;63138;55.082;38.804;2023-08-31T00:15:29;99897.78;;;12.77;100.00
74631;BME280;63138;55.082;38.804;2023-08-31T00:17:58;99891.00;;;12.73;100.00
74631;BME280;63138;55.082;38.804;2023-08-31T00:20:25;99903.22;;;12.77;100.00
74631;BME280;63138;55.082;38.804;2023-08-31T00:22:51;99900.69;;;12.75;100.00
74631;BME280;63138;55.082;38.804;2023-08-31T00:25:17;99900.22;;;12.72;100.00
74631;BME280;63138;55.082;38.804;2023-08-31T00:27:43;99893.03;;;12.64;100.00
74631;BME280;63138;55.082;38.804;2023-08-31T00:30:10;99884.41;;;12.60;100.00
74631;BME280;63138;55.082;38.804;2023-08-31T00:33:01;99891.69;;;12.60;100.00
74631;BME280;63138;55.082;38.804;2023-08-31T00:35:28;99891.69;;;12.60;100.00
74631;BME280;63138;55.082;38.804;2023-08-31T00:37:55;99900.75;;;12.60;100.00
74631;BME280;63138;55.082;38.804;2023-08-31T00:40:27;99893.78;;;12.58;100.00
74631;BME280;63138;55.082;38.804;2023-08-31T00:42:53;99899.03;;;12.59;100.00
74631;BME280;63138;55.082;38.804;2023-08-31T00:45:20;99892.09;;;12.57;100.00
74631;BME280;63138;55.082;38.804;2023-08-31T00:47:46;99890.59;;;12.54;100.00
74631;BME280;63138;55.082;38.804;2023-08-31T00:50:15;99898.75;;;12.54;100.00
74631;BME280;63138;55.082;38.804;2023-08-31T00:52:41;99885.13;;;12.54;100.00
74631;BME280;63138;55.082;38.804;2023-08-31T00:55:10;99889.75;;;12.54;100.00
74631;BME280;63138;55.082;38.804;2023-08-31T00:57:36;99889.94;;;12.52;100.00
74631;BME280;63138;55.082;38.804;2023-08-31T01:00:03;99898.75;;;12.54;100.00
74631;BME280;63138;55.082;38.804;2023-08-31T01:03:04;99893.50;;;12.53;100.00
74631;BME280;63138;55.082;38.804;2023-08-31T01:05:42;99892.84;;;12.51;100.00
74631;BME280;63138;55.082;38.804;2023-08-31T01:13:15;99885.91;;;12.48;100.00
74631;BME280;63138;55.082;38.804;2023-08-31T01:15:46;99883.56;;;12.45;100.00
74631;BME280;63138;55.082;38.804;2023-08-31T01:18:39;99882.28;;;12.41;100.00
74631;BME280;63138;55.082;38.804;2023-08-31T01:21:11;99885.00;;;12.41;100.00
74631;BME280;63138;55.082;38.804;2023-08-31T01:23:54;99886.00;;;12.40;100.00
74631;BME280;63138;55.082;38.804;2023-08-31T01:26:21;99891.00;;;12.36;100.00
74631;BME280;63138;55.082;38.804;2023-08-31T01:28:50;99881.53;;;12.32;100.00
74631;BME280;63138;55.082;38.804;2023-08-31T01:31:17;99893.91;;;12.35;100.00
74631;BME280;63138;55.082;38.804;2023-08-31T01:37:12;99892.78;;;12.29;100.00
74631;BME280;63138;55.082;38.804;2023-08-31T01:40:03;99910.16;;;12.28;100.00
74631;BME280;63138;55.082;38.804;2023-08-31T01:42:32;99908.47;;;12.27;100.00
74631;BME280;63138;55.082;38.804;2023-08-31T01:44:59;99913.06;;;12.27;100.00
74631;BME280;63138;55.082;38.804;2023-08-31T01:47:27;99913.25;;;12.25;100.00
74631;BME280;63138;55.082;38.804;2023-08-31T01:49:53;99922.25;;;12.26;100.00
74631;BME280;63138;55.082;38.804;2023-08-31T01:52:18;99914.28;;;12.24;100.00
74631;BME280;63138;55.082;38.804;2023-08-31T01:54:44;99918.88;;;12.23;100.00
74631;BME280;63138;55.082;38.804;2023-08-31T01:57:10;99916.16;;;12.23;100.00
74631;BME280;63138;55.082;38.804;2023-08-31T01:59:56;99911.09;;;12.20;100.00
74631;BME280;63138;55.082;38.804;2023-08-31T02:02:22;99917.59;;;12.19;100.00
74631;BME280;63138;55.082;38.804;2023-08-31T02:04:48;99905.34;;;12.15;100.00
74631;BME280;63138;55.082;38.804;2023-08-31T02:07:15;99906.59;;;12.13;100.00
74631;BME280;63138;55.082;38.804;2023-08-31T02:09:41;99904.06;;;12.11;100.00
74631;BME280;63138;55.082;38.804;2023-08-31T02:12:07;99906.97;;;12.10;100.00
74631;BME280;63138;55.082;38.804;2023-08-31T02:14:35;99891.03;;;12.07;100.00
74631;BME280;63138;55.082;38.804;2023-08-31T02:17:01;99894.13;;;12.03;100.00
74631;BME280;63138;55.082;38.804;2023-08-31T02:19:26;99891.56;;;12.02;100.00
74631;BME280;63138;55.082;38.804;2023-08-31T02:21:52;99896.00;;;12.03;100.00
74631;BME280;63138;55.082;38.804;2023-08-31T02:24:19;99886.97;;;12.02;100.00
74631;BME280;63138;55.082;38.804;2023-08-31T02:26:45;99886.31;;;12.00;100.00
74631;BME280;63138;55.082;38.804;2023-08-31T02:29:10;99880.41;;;11.97;100.00
74631;BME280;63138;55.082;38.804;2023-08-31T02:31:36;99887.56;;;11.98;100.00
74631;BME280;63138;55.082;38.804;2023-08-31T02:34:04;99898.81;;;11.95;100.00
74631;BME280;63138;55.082;38.804;2023-08-31T02:36:30;99901.81;;;12.00;100.00
74631;BME280;63138;55.082;38.804;2023-08-31T02:38:56;99897.19;;;12.00;100.00
74631;BME280;63138;55.082;38.804;2023-08-31T02:41:22;99889.03;;;12.00;100.00
74631;BME280;63138;55.082;38.804;2023-08-31T02:43:50;99894.13;;;12.03;100.00
74631;BME280;63138;55.082;38.804;2023-08-31T02:46:17;99893.94;;;12.05;100.00
74631;BME280;63138;55.082;38.804;2023-08-31T02:48:44;99886.78;;;12.04;100.00
74631;BME280;63138;55.082;38.804;2023-08-31T02:51:09;99885.47;;;12.00;100.00
74631;BME280;63138;55.082;38.804;2023-08-31T02:53:36;99878.81;;;12.02;100.00
74631;BME280;63138;55.082;38.804;2023-08-31T02:56:20;99883.22;;;12.03;100.00
74631;BME280;63138;55.082;38.804;2023-08-31T02:58:45;99888.56;;;12.12;100.00
74631;BME280;63138;55.082;38.804;2023-08-31T03:01:30;99890.25;;;12.13;100.00
74631;BME280;63138;55.082;38.804;2023-08-31T03:03:55;99884.44;;;12.16;100.00
74631;BME280;63138;55.082;38.804;2023-08-31T03:06:22;99899.19;;;12.21;100.00
74631;BME280;63138;55.082;38.804;2023-08-31T03:08:47;99888.28;;;12.21;100.00
74631;BME280;63138;55.082;38.804;2023-08-31T03:11:13;99904.25;;;12.24;100.00
74631;BME280;63138;55.082;38.804;2023-08-31T03:13:42;99904.72;;;12.28;100.00
74631;BME280;63138;55.082;38.804;2023-08-31T03:16:07;99902.72;;;12.37;100.00
74631;BME280;63138;55.082;38.804;2023-08-31T03:18:33;99902.34;;;12.40;100.00
74631;BME280;63138;55.082;38.804;2023-08-31T03:20:59;99902.44;;;12.47;100.00
74631;BME280;63138;55.082;38.804;2023-08-31T03:23:26;99899.44;;;12.41;100.00
74631;BME280;63138;55.082;38.804;2023-08-31T03:25:52;99893.44;;;12.46;100.00
74631;BME280;63138;55.082;38.804;2023-08-31T03:28:20;99886.56;;;12.50;100.00
74631;BME280;63138;55.082;38.804;2023-08-31T03:30:54;99887.72;;;12.41;100.00
74631;BME280;63138;55.082;38.804;2023-08-31T03:33:19;99892.19;;;12.49;100.00
74631;BME280;63138;55.082;38.804;2023-08-31T03:35:45;99897.94;;;12.54;100.00
74631;BME280;63138;55.082;38.804;2023-08-31T03:38:11;99893.78;;;12.58;100.00
74631;BME280;63138;55.082;38.804;2023-08-31T03:40:37;99896.31;;;12.59;100.00
74631;BME280;63138;55.082;38.804;2023-08-31T03:43:03;99903.66;;;12.59;100.00
74631;BME280;63138;55.082;38.804;2023-08-31T03:45:28;99905.31;;;12.75;100.00
74631;BME280;63138;55.082;38.804;2023-08-31T03:47:54;99909.88;;;12.74;100.00
74631;BME280;63138;55.082;38.804;2023-08-31T03:50:20;99909.16;;;12.80;100.00
74631;BME280;63138;55.082;38.804;2023-08-31T03:52:46;99907.53;;;12.86;100.00
74631;BME280;63138;55.082;38.804;2023-08-31T03:55:12;99904.66;;;12.94;100.00
74631;BME280;63138;55.082;38.804;2023-08-31T03:57:37;99914.16;;;12.98;100.00
74631;BME280;63138;55.082;38.804;2023-08-31T04:00:12;99917.81;;;13.06;100.00
74631;BME280;63138;55.082;38.804;2023-08-31T04:02:43;99920.56;;;13.12;100.00
74631;BME280;63138;55.082;38.804;2023-08-31T04:05:13;99915.47;;;13.24;100.00
74631;BME280;63138;55.082;38.804;2023-08-31T04:07:44;99918.75;;;13.34;100.00
74631;BME280;63138;55.082;38.804;2023-08-31T04:10:09;99914.97;;;13.35;100.00
74631;BME280;63138;55.082;38.804;2023-08-31T04:12:35;99910.41;;;13.43;100.00
74631;BME280;63138;55.082;38.804;2023-08-31T04:15:01;99904.50;;;13.39;100.00
74631;BME280;63138;55.082;38.804;2023-08-31T04:17:29;99903.75;;;13.30;100.00
74631;BME280;63138;55.082;38.804;2023-08-31T04:19:55;99912.88;;;13.37;100.00
74631;BME280;63138;55.082;38.804;2023-08-31T04:22:21;99908.88;;;13.33;100.00
74631;BME280;63138;55.082;38.804;2023-08-31T04:24:47;99913.94;;;13.36;100.00
74631;BME280;63138;55.082;38.804;2023-08-31T04:27:12;99906.22;;;13.40;100.00
74631;BME280;63138;55.082;38.804;2023-08-31T04:29:38;99918.34;;;13.37;100.00
74631;BME280;63138;55.082;38.804;2023-08-31T04:32:04;99909.38;;;13.44;100.00
74631;BME280;63138;55.082;38.804;2023-08-31T04:34:30;99915.59;;;13.37;100.00
74631;BME280;63138;55.082;38.804;2023-08-31T04:36:56;99913.50;;;13.33;100.00
74631;BME280;63138;55.082;38.804;2023-08-31T04:39:22;99926.66;;;13.51;100.00
74631;BME280;63138;55.082;38.804;2023-08-31T04:41:48;99927.59;;;13.65;100.00
74631;BME280;63138;55.082;38.804;2023-08-31T04:44:13;99930.94;;;13.60;100.00
74631;BME280;63138;55.082;38.804;2023-08-31T04:46:39;99931.44;;;13.70;100.00
74631;BME280;63138;55.082;38.804;2023-08-31T04:49:06;99936.81;;;13.85;100.00
74631;BME280;63138;55.082;38.804;2023-08-31T04:51:34;99932.28;;;13.99;100.00
74631;BME280;63138;55.082;38.804;2023-08-31T04:54:00;99940.94;;;14.09;100.00
74631;BME280;63138;55.082;38.804;2023-08-31T04:56:30;99945.63;;;14.15;100.00
74631;BME280;63138;55.082;38.804;2023-08-31T04:58:58;99950.78;;;14.32;100.00
74631;BME280;63138;55.082;38.804;2023-08-31T05:01:24;99948.31;;;14.44;100.00
74631;BME280;63138;55.082;38.804;2023-08-31T05:03:49;99943.28;;;14.47;100.00
74631;BME280;63138;55.082;38.804;2023-08-31T05:06:34;99952.03;;;14.64;100.00
74631;BME280;63138;55.082;38.804;2023-08-31T05:09:00;99943.88;;;14.78;100.00
74631;BME280;63138;55.082;38.804;2023-08-31T05:11:26;99952.13;;;14.98;100.00
74631;BME280;63138;55.082;38.804;2023-08-31T05:13:51;99944.41;;;15.08;100.00
74631;BME280;63138;55.082;38.804;2023-08-31T05:16:17;99945.09;;;15.23;100.00
74631;BME280;63138;55.082;38.804;2023-08-31T05:18:43;99952.94;;;15.93;100.00
74631;BME280;63138;55.082;38.804;2023-08-31T05:21:08;99939.78;;;17.07;100.00
74631;BME280;63138;55.082;38.804;2023-08-31T05:23:34;99958.09;;;18.02;100.00
74631;BME280;63138;55.082;38.804;2023-08-31T05:26:00;99954.91;;;18.86;100.00
74631;BME280;63138;55.082;38.804;2023-08-31T05:28:27;99954.31;;;19.75;100.00
74631;BME280;63138;55.082;38.804;2023-08-31T05:30:54;99954.00;;;20.07;100.00
74631;BME280;63138;55.082;38.804;2023-08-31T05:33:20;99956.16;;;20.64;100.00
74631;BME280;63138;55.082;38.804;2023-08-31T05:35:52;99945.91;;;21.16;100.00
74631;BME280;63138;55.082;38.804;2023-08-31T05:38:19;99942.28;;;21.45;100.00
74631;BME280;63138;55.082;38.804;2023-08-31T05:40:48;99948.03;;;21.89;100.00
74631;BME280;63138;55.082;38.804;2023-08-31T05:43:15;99947.00;;;22.12;98.97
74631;BME280;63138;55.082;38.804;2023-08-31T05:45:41;99950.50;;;22.58;96.08
74631;BME280;63138;55.082;38.804;2023-08-31T05:48:08;99942.69;;;23.21;94.06
74631;BME280;63138;55.082;38.804;2023-08-31T05:50:34;99933.44;;;23.97;89.63
74631;BME280;63138;55.082;38.804;2023-08-31T05:53:02;99941.50;;;23.99;83.99
74631;BME280;63138;55.082;38.804;2023-08-31T05:55:27;99934.19;;;24.25;83.89
74631;BME280;63138;55.082;38.804;2023-08-31T05:57:53;99931.81;;;25.02;81.55
74631;BME280;63138;55.082;38.804;2023-08-31T06:00:19;99936.72;;;24.74;79.31
74631;BME280;63138;55.082;38.804;2023-08-31T06:02:45;99936.31;;;24.55;80.61
74631;BME280;63138;55.082;38.804;2023-08-31T06:05:11;99937.34;;;25.02;78.97
74631;BME280;63138;55.082;38.804;2023-08-31T06:07:42;99943.34;;;25.47;75.60
74631;BME280;63138;55.082;38.804;2023-08-31T06:10:09;99937.47;;;25.33;72.88
74631;BME280;63138;55.082;38.804;2023-08-31T06:12:35;99931.34;;;25.31;73.55
74631;BME280;63138;55.082;38.804;2023-08-31T06:15:02;99920.84;;;26.20;71.77
74631;BME280;63138;55.082;38.804;2023-08-31T06:17:29;99916.91;;;26.37;68.07
74631;BME280;63138;55.082;38.804;2023-08-31T06:19:54;99925.19;;;26.57;67.54
74631;BME280;63138;55.082;38.804;2023-08-31T06:22:21;99922.09;;;26.74;67.50
74631;BME280;63138;55.082;38.804;2023-08-31T06:24:50;99924.38;;;26.51;67.67
74631;BME280;63138;55.082;38.804;2023-08-31T06:27:17;99925.84;;;25.77;69.17
74631;BME280;63138;55.082;38.804;2023-08-31T06:29:43;99916.41;;;25.93;69.89
74631;BME280;63138;55.082;38.804;2023-08-31T06:32:09;99925.84;;;26.03;70.13
74631;BME280;63138;55.082;38.804;2023-08-31T06:34:34;99935.75;;;26.70;68.95
74631;BME280;63138;55.082;38.804;2023-08-31T06:37:01;99940.72;;;26.74;67.82
74631;BME280;63138;55.082;38.804;2023-08-31T06:39:27;99932.13;;;27.25;66.27
74631;BME280;63138;55.082;38.804;2023-08-31T06:41:52;99931.75;;;27.47;64.83
74631;BME280;63138;55.082;38.804;2023-08-31T06:44:25;99927.69;;;27.29;63.20
74631;BME280;63138;55.082;38.804;2023-08-31T06:46:51;99924.13;;;27.58;62.70
74631;BME280;63138;55.082;38.804;2023-08-31T06:49:17;99919.84;;;27.31;63.01
74631;BME280;63138;55.082;38.804;2023-08-31T06:51:42;99923.25;;;27.23;62.51
74631;BME280;63138;55.082;38.804;2023-08-31T06:54:08;99928.38;;;27.50;62.23
74631;BME280;63138;55.082;38.804;2023-08-31T06:56:35;99914.94;;;27.07;62.27
74631;BME280;63138;55.082;38.804;2023-08-31T06:59:02;99914.88;;;27.28;60.90
74631;BME280;63138;55.082;38.804;2023-08-31T07:01:29;99914.63;;;26.49;62.27
74631;BME280;63138;55.082;38.804;2023-08-31T07:03:55;99921.22;;;26.84;62.99
74631;BME280;63138;55.082;38.804;2023-08-31T07:06:21;99935.56;;;26.31;62.58
74631;BME280;63138;55.082;38.804;2023-08-31T07:08:47;99935.28;;;26.22;64.53
74631;BME280;63138;55.082;38.804;2023-08-31T07:11:14;99937.41;;;26.72;63.68
74631;BME280;63138;55.082;38.804;2023-08-31T07:13:41;99947.50;;;26.37;63.30
74631;BME280;63138;55.082;38.804;2023-08-31T07:16:06;99949.75;;;26.09;63.67
74631;BME280;63138;55.082;38.804;2023-08-31T07:18:33;99940.16;;;26.82;63.15
74631;BME280;63138;55.082;38.804;2023-08-31T07:20:59;99947.47;;;26.67;60.92
74631;BME280;63138;55.082;38.804;2023-08-31T07:23:25;99939.78;;;26.13;63.19
74631;BME280;63138;55.082;38.804;2023-08-31T07:25:51;99928.34;;;27.05;62.66
74631;BME280;63138;55.082;38.804;2023-08-31T07:28:17;99922.88;;;27.74;60.59
74631;BME280;63138;55.082;38.804;2023-08-31T07:30:43;99921.41;;;27.82;59.39
74631;BME280;63138;55.082;38.804;2023-08-31T07:33:09;99929.91;;;27.22;58.66
74631;BME280;63138;55.082;38.804;2023-08-31T07:35:53;99925.06;;;26.93;59.68
74631;BME280;63138;55.082;38.804;2023-08-31T07:38:19;99934.75;;;27.01;59.68
74631;BME280;63138;55.082;38.804;2023-08-31T07:40:45;99930.59;;;26.07;61.54
74631;BME280;63138;55.082;38.804;2023-08-31T07:43:11;99937.25;;;26.22;61.59
74631;BME280;63138;55.082;38.804;2023-08-31T07:45:36;99947.56;;;26.06;62.32
74631;BME280;63138;55.082;38.804;2023-08-31T07:48:02;99925.00;;;26.18;62.87
74631;BME280;63138;55.082;38.804;2023-08-31T07:50:29;99946.34;;;26.58;62.06
74631;BME280;63138;55.082;38.804;2023-08-31T07:52:55;99942.00;;;27.02;61.66
74631;BME280;63138;55.082;38.804;2023-08-31T07:55:20;99942.50;;;25.87;62.62
74631;BME280;63138;55.082;38.804;2023-08-31T07:57:47;99946.69;;;26.26;63.51
74631;BME280;63138;55.082;38.804;2023-08-31T08:00:13;99943.38;;;25.88;63.54
74631;BME280;63138;55.082;38.804;2023-08-31T08:02:40;99936.16;;;25.97;63.63
74631;BME280;63138;55.082;38.804;2023-08-31T08:05:07;99949.84;;;26.95;61.50
74631;BME280;63138;55.082;38.804;2023-08-31T08:07:33;99940.81;;;26.32;61.20
74631;BME280;63138;55.082;38.804;2023-08-31T08:09:59;99939.97;;;27.28;60.36
74631;BME280;63138;55.082;38.804;2023-08-31T08:12:25;99946.25;;;26.94;60.59
74631;BME280;63138;55.082;38.804;2023-08-31T08:14:51;99953.56;;;26.54;61.48
74631;BME280;63138;55.082;38.804;2023-08-31T08:17:17;99954.16;;;26.56;60.63
74631;BME280;63138;55.082;38.804;2023-08-31T08:19:42;99949.09;;;26.74;59.77
74631;BME280;63138;55.082;38.804;2023-08-31T08:22:13;99955.34;;;25.99;60.75
74631;BME280;63138;55.082;38.804;2023-08-31T08:24:58;99937.88;;;26.94;60.56
74631;BME280;63138;55.082;38.804;2023-08-31T08:27:24;99942.22;;;27.16;58.35
74631;BME280;63138;55.082;38.804;2023-08-31T08:29:50;99957.16;;;26.75;57.12
74631;BME280;63138;55.082;38.804;2023-08-31T08:32:16;99951.81;;;26.94;57.64
74631;BME280;63138;55.082;38.804;2023-08-31T08:34:44;99935.22;;;27.23;56.59
74631;BME280;63138;55.082;38.804;2023-08-31T08:37:09;99949.44;;;26.46;58.42
74631;BME280;63138;55.082;38.804;2023-08-31T08:39:36;99943.00;;;26.56;57.62
74631;BME280;63138;55.082;38.804;2023-08-31T08:42:04;99944.19;;;26.19;58.67
74631;BME280;63138;55.082;38.804;2023-08-31T08:44:32;99943.31;;;26.49;57.77
74631;BME280;63138;55.082;38.804;2023-08-31T08:47:00;99945.88;;;25.94;59.33
74631;BME280;63138;55.082;38.804;2023-08-31T08:49:26;99923.63;;;26.05;60.32
74631;BME280;63138;55.082;38.804;2023-08-31T08:51:53;99928.63;;;26.08;58.74
74631;BME280;63138;55.082;38.804;2023-08-31T08:54:22;99924.38;;;26.51;58.57
74631;BME280;63138;55.082;38.804;2023-08-31T08:56:48;99927.63;;;26.79;58.57
74631;BME280;63138;55.082;38.804;2023-08-31T08:59:14;99929.50;;;25.93;60.06
74631;BME280;63138;55.082;38.804;2023-08-31T09:01:40;99933.59;;;26.37;59.24
74631;BME280;63138;55.082;38.804;2023-08-31T09:04:08;99919.09;;;26.45;58.96
74631;BME280;63138;55.082;38.804;2023-08-31T09:06:35;99921.97;;;25.68;60.94
74631;BME280;63138;55.082;38.804;2023-08-31T09:09:01;99918.59;;;26.17;59.97
74631;BME280;63138;55.082;38.804;2023-08-31T09:11:28;99920.25;;;26.28;59.14
74631;BME280;63138;55.082;38.804;2023-08-31T09:13:59;99925.25;;;26.21;57.84
74631;BME280;63138;55.082;38.804;2023-08-31T09:16:26;99921.88;;;26.40;57.59
74631;BME280;63138;55.082;38.804;2023-08-31T09:18:54;99919.44;;;26.18;58.04
74631;BME280;63138;55.082;38.804;2023-08-31T09:21:20;99921.94;;;26.09;58.74
74631;BME280;63138;55.082;38.804;2023-08-31T09:23:55;99924.72;;;25.73;58.90
74631;BME280;63138;55.082;38.804;2023-08-31T09:26:22;99917.22;;;25.79;56.79
74631;BME280;63138;55.082;38.804;2023-08-31T09:28:49;99928.03;;;25.34;56.75
74631;BME280;63138;55.082;38.804;2023-08-31T09:31:16;99915.25;;;25.64;58.17
74631;BME280;63138;55.082;38.804;2023-08-31T09:33:51;99913.88;;;25.51;55.92
74631;BME280;63138;55.082;38.804;2023-08-31T09:36:19;99911.69;;;25.79;57.13
74631;BME280;63138;55.082;38.804;2023-08-31T09:38:46;99915.56;;;25.72;56.45
74631;BME280;63138;55.082;38.804;2023-08-31T09:41:12;99913.88;;;25.82;57.53
74631;BME280;63138;55.082;38.804;2023-08-31T09:43:39;99920.28;;;26.13;56.99
74631;BME280;63138;55.082;38.804;2023-08-31T09:46:05;99920.84;;;25.74;57.84
74631;BME280;63138;55.082;38.804;2023-08-31T09:48:31;99934.69;;;25.33;57.98
74631;BME280;63138;55.082;38.804;2023-08-31T09:50:57;99931.91;;;25.33;58.38
74631;BME280;63138;55.082;38.804;2023-08-31T09:53:24;99933.38;;;25.71;57.71
74631;BME280;63138;55.082;38.804;2023-08-31T09:55:54;99917.22;;;25.84;57.22
74631;BME280;63138;55.082;38.804;2023-08-31T09:58:23;99921.66;;;26.05;56.43
74631;BME280;63138;55.082;38.804;2023-08-31T10:00:52;99933.31;;;25.35;58.46
74631;BME280;63138;55.082;38.804;2023-08-31T10:03:20;99919.75;;;25.75;58.46
74631;BME280;63138;55.082;38.804;2023-08-31T10:05:50;99919.59;;;25.08;58.71
74631;BME280;63138;55.082;38.804;2023-08-31T10:08:16;99922.75;;;25.37;58.51
74631;BME280;63138;55.082;38.804;2023-08-31T10:10:44;99922.53;;;25.75;57.90
74631;BME280;63138;55.082;38.804;2023-08-31T10:13:11;99917.50;;;26.18;57.03
74631;BME280;63138;55.082;38.804;2023-08-31T10:15:37;99915.19;;;26.51;56.49
74631;BME280;63138;55.082;38.804;2023-08-31T10:18:05;99914.66;;;26.39;56.14
74631;BME280;63138;55.082;38.804;2023-08-31T10:20:33;99904.16;;;26.10;57.18
74631;BME280;63138;55.082;38.804;2023-08-31T10:23:05;99911.88;;;26.39;56.54
74631;BME280;63138;55.082;38.804;2023-08-31T10:28:23;99924.19;;;25.86;57.76
74631;BME280;63138;55.082;38.804;2023-08-31T10:33:35;99926.94;;;25.71;59.21
74631;BME280;63138;55.082;38.804;2023-08-31T10:36:38;99916.66;;;25.51;60.62
74631;BME280;63138;55.082;38.804;2023-08-31T10:39:16;99918.34;;;26.03;60.29
74631;BME280;63138;55.082;38.804;2023-08-31T10:41:52;99919.34;;;25.15;59.24
74631;BME280;63138;55.082;38.804;2023-08-31T10:44:20;99914.66;;;25.26;60.72
74631;BME280;63138;55.082;38.804;2023-08-31T10:46:47;99917.19;;;25.37;60.84
74631;BME280;63138;55.082;38.804;2023-08-31T10:49:14;99912.44;;;25.28;60.33
74631;BME280;63138;55.082;38.804;2023-08-31T10:52:17;99920.94;;;24.95;62.11
74631;BME280;63138;55.082;38.804;2023-08-31T10:54:43;99912.16;;;25.24;61.62
74631;BME280;63138;55.082;38.804;2023-08-31T10:57:13;99911.94;;;25.41;61.45
74631;BME280;63138;55.082;38.804;2023-08-31T10:59:53;99891.06;;;25.38;61.48
74631;BME280;63138;55.082;38.804;2023-08-31T11:02:36;99905.69;;;25.08;61.83
74631;BME280;63138;55.082;38.804;2023-08-31T11:07:37;99907.91;;;25.01;61.00
74631;BME280;63138;55.082;38.804;2023-08-31T11:10:15;99903.50;;;25.21;61.35
74631;BME280;63138;55.082;38.804;2023-08-31T11:12:50;99902.41;;;25.22;62.01
74631;BME280;63138;55.082;38.804;2023-08-31T11:15:21;99904.00;;;24.92;63.04
74631;BME280;63138;55.082;38.804;2023-08-31T11:17:49;99900.38;;;24.86;62.54
74631;BME280;63138;55.082;38.804;2023-08-31T11:20:17;99893.16;;;24.95;62.88
74631;BME280;63138;55.082;38.804;2023-08-31T11:22:49;99899.09;;;25.30;62.29
74631;BME280;63138;55.082;38.804;2023-08-31T11:25:21;99909.69;;;25.43;62.20
74631;BME280;63138;55.082;38.804;2023-08-31T11:27:59;99898.31;;;25.50;62.26
74631;BME280;63138;55.082;38.804;2023-08-31T11:30:27;99899.69;;;25.32;62.90
74631;BME280;63138;55.082;38.804;2023-08-31T11:32:53;99896.06;;;25.31;63.06
74631;BME280;63138;55.082;38.804;2023-08-31T11:35:21;99888.03;;;25.50;62.92
74631;BME280;63138;55.082;38.804;2023-08-31T11:37:55;99887.47;;;25.43;62.42
74631;BME280;63138;55.082;38.804;2023-08-31T11:40:21;99892.75;;;25.60;62.38
74631;BME280;63138;55.082;38.804;2023-08-31T11:42:48;99881.28;;;25.21;63.10
74631;BME280;63138;55.082;38.804;2023-08-31T11:45:15;99883.25;;;25.20;62.70
74631;BME280;63138;55.082;38.804;2023-08-31T11:47:42;99877.16;;;25.33;63.42
74631;BME280;63138;55.082;38.804;2023-08-31T11:50:10;99873.56;;;25.59;62.42
74631;BME280;63138;55.082;38.804;2023-08-31T11:52:37;99870.81;;;25.53;62.47
74631;BME280;63138;55.082;38.804;2023-08-31T11:55:15;99872.47;;;25.75;61.92
74631;BME280;63138;55.082;38.804;2023-08-31T11:57:54;99881.91;;;25.69;61.63
74631;BME280;63138;55.082;38.804;2023-08-31T12:00:21;99861.91;;;25.67;62.39
74631;BME280;63138;55.082;38.804;2023-08-31T12:03:03;99862.16;;;25.86;62.31
74631;BME280;63138;55.082;38.804;2023-08-31T12:05:47;99859.66;;;25.89;61.85
74631;BME280;63138;55.082;38.804;2023-08-31T12:08:14;99856.63;;;25.34;62.56
74631;BME280;63138;55.082;38.804;2023-08-31T12:10:42;99861.34;;;25.70;62.35
74631;BME280;63138;55.082;38.804;2023-08-31T12:13:09;99848.53;;;25.69;62.28
74631;BME280;63138;55.082;38.804;2023-08-31T12:15:35;99850.22;;;25.75;62.32
74631;BME280;63138;55.082;38.804;2023-08-31T12:18:26;99847.13;;;25.82;62.42
74631;BME280;63138;55.082;38.804;2023-08-31T12:20:54;99848.53;;;25.74;61.61
74631;BME280;63138;55.082;38.804;2023-08-31T12:23:20;99843.81;;;25.69;61.77
74631;BME280;63138;55.082;38.804;2023-08-31T12:25:53;99840.47;;;25.62;62.17
74631;BME280;63138;55.082;38.804;2023-08-31T12:28:20;99844.69;;;25.39;63.25
74631;BME280;63138;55.082;38.804;2023-08-31T12:30:51;99838.56;;;25.27;63.36
74631;BME280;63138;55.082;38.804;2023-08-31T12:33:18;99829.66;;;25.50;63.01
74631;BME280;63138;55.082;38.804;2023-08-31T12:35:44;99839.09;;;25.75;62.93
74631;BME280;63138;55.082;38.804;2023-08-31T12:38:10;99841.59;;;25.56;62.29
74631;BME280;63138;55.082;38.804;2023-08-31T12:40:36;99837.44;;;25.38;62.54
74631;BME280;63138;55.082;38.804;2023-08-31T12:43:04;99829.94;;;25.44;63.15
74631;BME280;63138;55.082;38.804;2023-08-31T12:45:30;99837.16;;;25.65;62.76
74631;BME280;63138;55.082;38.804;2023-08-31T12:47:56;99830.50;;;25.71;62.08
74631;BME280;63138;55.082;38.804;2023-08-31T12:50:22;99830.44;;;25.87;62.45
74631;BME280;63138;55.082;38.804;2023-08-31T12:52:48;99822.16;;;25.66;61.94
74631;BME280;63138;55.082;38.804;2023-08-31T12:55:14;99818.53;;;25.50;63.02
74631;BME280;63138;55.082;38.804;2023-08-31T12:57:41;99826.59;;;25.67;62.79
74631;BME280;63138;55.082;38.804;2023-08-31T13:00:09;99835.19;;;25.66;62.69
74631;BME280;63138;55.082;38.804;2023-08-31T13:02:40;99824.94;;;25.66;62.98
74631;BME280;63138;55.082;38.804;2023-08-31T13:05:09;99827.41;;;25.78;62.04
74631;BME280;63138;55.082;38.804;2023-08-31T13:07:36;99831.88;;;25.64;61.24